Time;durP1;ratioP1;P1;durP2;ratioP2;P2;SDS_P1;SDS_P2;PMS_P1;PMS_P2;Temp;Humidity;BMP_temperature;BMP_pressure;BME280_temperature;BME280_humidity;BME280_pressure;Samples;Min_cycle;Max_cycle;Signal;HPM_P1;HPM_P2
2022/03/17 00:01:21;;;;;;;32.93;21.80;;;;;;;;;;5035409;28;20414;-65
2022/03/17 00:03:47;;;;;;;32.53;21.93;;;;;;;;;;5035214;28;20418;-62
2022/03/17 00:06:13;;;;;;;33.50;22.80;;;;;;;;;;5035020;28;20501;-63
2022/03/17 00:08:40;;;;;;;33.70;22.03;;;;;;;;;;5035238;28;20869;-62
2022/03/17 00:11:07;;;;;;;30.67;21.80;;;;;;;;;;5035075;28;20452;-63
2022/03/17 00:13:33;;;;;;;32.77;22.00;;;;;;;;;;5035048;28;20498;-62
2022/03/17 00:15:59;;;;;;;36.40;22.70;;;;;;;;;;5034525;28;20854;-62
2022/03/17 00:18:25;;;;;;;30.77;21.30;;;;;;;;;;5033885;28;20434;-62
2022/03/17 00:20:51;;;;;;;31.80;21.60;;;;;;;;;;5035058;28;20433;-62
2022/03/17 00:23:18;;;;;;;31.87;23.20;;;;;;;;;;5034940;28;20457;-63
2022/03/17 00:25:44;;;;;;;32.40;21.27;;;;;;;;;;5034943;28;20403;-62
2022/03/17 00:28:10;;;;;;;31.33;22.90;;;;;;;;;;5034836;28;20422;-62
2022/03/17 00:30:36;;;;;;;33.07;24.20;;;;;;;;;;5034881;28;20457;-62
2022/03/17 00:33:02;;;;;;;31.00;21.87;;;;;;;;;;5034823;28;20430;-65
2022/03/17 00:35:42;;;;;;;34.00;23.40;;;;;;;;;;5033541;28;20791;-66
2022/03/17 00:38:19;;;;;;;30.77;21.53;;;;;;;;;;5034783;28;20966;-65
2022/03/17 00:40:46;;;;;;;32.13;22.00;;;;;;;;;;5034664;28;20434;-63
2022/03/17 00:43:13;;;;;;;35.80;23.97;;;;;;;;;;5034605;28;20426;-64
2022/03/17 00:45:40;;;;;;;34.77;22.80;;;;;;;;;;5034471;28;20521;-65
2022/03/17 00:48:06;;;;;;;36.10;23.93;;;;;;;;;;5034474;28;20466;-63
2022/03/17 00:50:33;;;;;;;33.80;21.80;;;;;;;;;;5034508;28;20918;-65
2022/03/17 00:53:02;;;;;;;33.10;23.40;;;;;;;;;;5034388;28;20497;-63
2022/03/17 00:55:28;;;;;;;33.30;22.33;;;;;;;;;;5034495;28;20423;-65
2022/03/17 00:57:54;;;;;;;31.37;21.57;;;;;;;;;;5034464;28;20461;-63
2022/03/17 01:00:21;;;;;;;31.00;22.33;;;;;;;;;;5034449;28;20425;-66
2022/03/17 01:02:49;;;;;;;35.60;23.83;;;;;;;;;;5033817;28;20414;-64
2022/03/17 01:05:16;;;;;;;34.53;23.70;;;;;;;;;;5033874;28;20556;-63
2022/03/17 01:07:42;;;;;;;32.30;22.37;;;;;;;;;;5034111;28;20449;-64
2022/03/17 01:10:09;;;;;;;35.77;23.53;;;;;;;;;;5034082;28;20759;-65
2022/03/17 01:12:35;;;;;;;35.40;23.93;;;;;;;;;;5033980;28;20414;-63
2022/03/17 01:15:02;;;;;;;33.10;22.90;;;;;;;;;;5033826;28;20489;-67
2022/03/17 01:17:28;;;;;;;36.07;23.70;;;;;;;;;;5033974;28;20414;-63
2022/03/17 01:19:54;;;;;;;39.37;24.47;;;;;;;;;;5033911;28;20932;-64
2022/03/17 01:22:21;;;;;;;33.33;23.17;;;;;;;;;;5033662;28;20443;-63
2022/03/17 01:24:49;;;;;;;33.73;22.67;;;;;;;;;;5032644;28;20446;-63
2022/03/17 01:27:15;;;;;;;38.73;22.93;;;;;;;;;;5032997;28;20473;-63
2022/03/17 01:29:43;;;;;;;31.00;22.40;;;;;;;;;;5033746;28;20410;-65
2022/03/17 01:32:10;;;;;;;37.70;23.57;;;;;;;;;;5033739;28;20406;-65
2022/03/17 01:34:36;;;;;;;35.47;24.20;;;;;;;;;;5033528;28;20475;-64
2022/03/17 01:37:02;;;;;;;41.40;24.93;;;;;;;;;;5033593;28;20755;-63
2022/03/17 01:39:28;;;;;;;35.90;24.40;;;;;;;;;;5033709;28;20497;-63
2022/03/17 01:42:02;;;;;;;34.87;23.70;;;;;;;;;;5033464;28;20549;-64
2022/03/17 01:44:28;;;;;;;36.13;22.93;;;;;;;;;;5033554;28;20523;-63
2022/03/17 01:49:39;;;;;;;35.20;22.50;;;;;;;;;;5033467;28;20414;-64
2022/03/17 01:52:06;;;;;;;36.40;23.90;;;;;;;;;;5033388;28;20415;-64
2022/03/17 01:54:32;;;;;;;37.10;21.87;;;;;;;;;;5033226;28;20470;-65
2022/03/17 01:56:59;;;;;;;34.73;22.80;;;;;;;;;;5033446;28;20472;-64
2022/03/17 01:59:26;;;;;;;36.27;23.73;;;;;;;;;;5033223;28;20429;-65
2022/03/17 02:01:53;;;;;;;35.33;23.00;;;;;;;;;;5033108;28;20434;-65
2022/03/17 02:04:20;;;;;;;34.97;23.10;;;;;;;;;;5032968;28;20497;-66
2022/03/17 02:06:46;;;;;;;36.27;23.00;;;;;;;;;;5033362;28;20445;-67
2022/03/17 02:09:12;;;;;;;36.97;23.80;;;;;;;;;;5032978;28;20908;-68
2022/03/17 02:14:23;;;;;;;33.87;23.80;;;;;;;;;;5032794;28;21004;-63
2022/03/17 02:16:52;;;;;;;36.97;24.33;;;;;;;;;;5033023;28;20430;-63
2022/03/17 02:19:21;;;;;;;38.07;24.70;;;;;;;;;;5032886;28;20493;-63
2022/03/17 02:21:48;;;;;;;35.97;24.00;;;;;;;;;;5033076;28;20433;-63
2022/03/17 02:26:59;;;;;;;37.73;25.10;;;;;;;;;;5033225;28;20909;-67
2022/03/17 02:29:26;;;;;;;36.40;23.87;;;;;;;;;;5031643;28;20426;-64
2022/03/17 02:31:53;;;;;;;36.97;23.27;;;;;;;;;;5032890;28;20890;-63
2022/03/17 02:34:19;;;;;;;34.90;23.47;;;;;;;;;;5032772;28;20477;-63
2022/03/17 02:36:48;;;;;;;35.87;23.60;;;;;;;;;;5032988;28;20407;-64
2022/03/17 02:39:15;;;;;;;37.53;25.37;;;;;;;;;;5035010;28;20513;-69
2022/03/17 02:41:42;;;;;;;36.50;22.70;;;;;;;;;;5036694;28;20510;-71
2022/03/17 02:44:08;;;;;;;38.17;24.30;;;;;;;;;;5036768;28;20413;-64
2022/03/17 02:46:34;;;;;;;40.13;25.50;;;;;;;;;;5036741;28;20406;-63
2022/03/17 02:49:01;;;;;;;38.00;24.77;;;;;;;;;;5036733;28;20422;-64
2022/03/17 02:51:26;;;;;;;36.47;24.10;;;;;;;;;;5036685;28;20418;-63
2022/03/17 02:53:52;;;;;;;36.43;24.23;;;;;;;;;;5036625;28;20458;-64
2022/03/17 02:56:19;;;;;;;35.80;23.90;;;;;;;;;;5040381;28;20427;-65
2022/03/17 02:58:45;;;;;;;36.77;23.00;;;;;;;;;;5034499;28;20484;-64
2022/03/17 03:01:11;;;;;;;38.30;23.10;;;;;;;;;;5034846;28;20406;-66
2022/03/17 03:03:37;;;;;;;35.30;23.73;;;;;;;;;;5035846;28;20409;-64
2022/03/17 03:06:03;;;;;;;34.60;23.13;;;;;;;;;;5035274;28;20454;-64
2022/03/17 03:08:29;;;;;;;34.00;21.70;;;;;;;;;;5036118;28;20410;-63
2022/03/17 03:10:57;;;;;;;40.00;25.63;;;;;;;;;;5036133;28;20454;-63
2022/03/17 03:13:23;;;;;;;34.23;23.93;;;;;;;;;;5036014;28;20461;-64
2022/03/17 03:15:52;;;;;;;38.03;24.93;;;;;;;;;;5036198;28;20952;-63
2022/03/17 03:18:19;;;;;;;38.43;25.40;;;;;;;;;;5036161;28;20410;-63
2022/03/17 03:20:45;;;;;;;36.67;24.67;;;;;;;;;;5036037;28;20511;-64
2022/03/17 03:23:11;;;;;;;35.47;24.17;;;;;;;;;;5036234;28;20413;-63
2022/03/17 03:25:37;;;;;;;36.70;24.83;;;;;;;;;;5036106;28;20402;-65
2022/03/17 03:28:10;;;;;;;37.23;24.70;;;;;;;;;;5036052;28;20390;-64
2022/03/17 03:30:36;;;;;;;40.90;24.50;;;;;;;;;;5035980;28;20964;-64
2022/03/17 03:33:03;;;;;;;37.70;24.00;;;;;;;;;;5035918;28;20878;-65
2022/03/17 03:38:14;;;;;;;35.63;23.30;;;;;;;;;;5035901;28;20417;-64
2022/03/17 03:40:40;;;;;;;36.73;23.53;;;;;;;;;;5035786;28;20905;-63
2022/03/17 03:43:06;;;;;;;36.83;23.57;;;;;;;;;;5032947;28;20495;-64
2022/03/17 03:45:32;;;;;;;33.80;23.43;;;;;;;;;;5035441;28;20433;-66
2022/03/17 03:47:58;;;;;;;40.57;25.33;;;;;;;;;;5035522;28;20817;-66
2022/03/17 03:50:25;;;;;;;36.13;25.17;;;;;;;;;;5034799;28;20916;-67
2022/03/17 03:52:51;;;;;;;38.87;23.97;;;;;;;;;;5035595;28;20406;-64
2022/03/17 03:55:17;;;;;;;37.07;23.77;;;;;;;;;;5035453;28;20877;-65
2022/03/17 03:57:46;;;;;;;39.50;24.47;;;;;;;;;;5035375;28;20410;-63
2022/03/17 04:02:57;;;;;;;38.07;24.97;;;;;;;;;;5035525;28;20425;-64
2022/03/17 04:05:28;;;;;;;35.00;23.47;;;;;;;;;;5035102;28;20469;-63
2022/03/17 04:07:55;;;;;;;38.27;24.57;;;;;;;;;;5034129;28;20415;-63
2022/03/17 04:10:21;;;;;;;35.63;23.80;;;;;;;;;;5035344;28;20485;-65
2022/03/17 04:12:47;;;;;;;36.93;23.23;;;;;;;;;;5035285;28;20457;-63
2022/03/17 04:15:13;;;;;;;37.67;23.53;;;;;;;;;;5034943;28;20486;-63
2022/03/17 04:17:39;;;;;;;38.40;24.93;;;;;;;;;;5035041;28;20414;-63
2022/03/17 04:20:09;;;;;;;38.13;24.40;;;;;;;;;;5035166;28;20509;-63
2022/03/17 04:22:35;;;;;;;42.97;26.20;;;;;;;;;;5034978;28;20437;-69
2022/03/17 04:25:01;;;;;;;37.60;24.17;;;;;;;;;;5033753;28;20415;-69
2022/03/17 04:27:27;;;;;;;37.80;24.07;;;;;;;;;;5034803;28;20918;-71
2022/03/17 04:29:54;;;;;;;36.13;24.13;;;;;;;;;;5034878;28;20442;-69
2022/03/17 04:32:20;;;;;;;37.57;23.27;;;;;;;;;;5035004;28;20407;-70
2022/03/17 04:34:46;;;;;;;36.40;24.13;;;;;;;;;;5034636;28;20458;-70
2022/03/17 04:37:12;;;;;;;39.50;25.60;;;;;;;;;;5034702;28;20418;-71
2022/03/17 04:39:38;;;;;;;35.53;23.83;;;;;;;;;;5034768;28;20822;-70
2022/03/17 04:42:04;;;;;;;35.47;24.27;;;;;;;;;;5033379;28;20464;-69
2022/03/17 04:44:30;;;;;;;36.97;23.90;;;;;;;;;;5034546;28;20924;-70
2022/03/17 04:46:56;;;;;;;36.30;24.43;;;;;;;;;;5034495;28;20402;-68
2022/03/17 04:49:22;;;;;;;35.73;24.10;;;;;;;;;;5033281;28;20509;-69
2022/03/17 04:51:48;;;;;;;34.77;23.60;;;;;;;;;;5034369;28;20414;-70
2022/03/17 04:54:14;;;;;;;41.40;24.03;;;;;;;;;;5034302;28;20539;-71
2022/03/17 04:56:40;;;;;;;40.57;24.60;;;;;;;;;;5034376;28;20398;-70
2022/03/17 04:59:06;;;;;;;41.27;25.80;;;;;;;;;;5034310;28;20919;-70
2022/03/17 05:01:32;;;;;;;39.07;25.73;;;;;;;;;;5033884;28;20433;-71
2022/03/17 05:03:58;;;;;;;37.87;24.00;;;;;;;;;;5032935;28;20458;-71
2022/03/17 05:06:24;;;;;;;39.87;26.07;;;;;;;;;;5034037;28;20498;-71
2022/03/17 05:08:50;;;;;;;37.90;23.40;;;;;;;;;;5034233;28;20924;-63
2022/03/17 05:11:16;;;;;;;38.97;26.30;;;;;;;;;;5037984;28;20461;-63
2022/03/17 05:13:47;;;;;;;36.77;25.10;;;;;;;;;;5045975;28;20497;-70
2022/03/17 05:16:14;;;;;;;40.03;24.73;;;;;;;;;;5032738;28;20851;-67
2022/03/17 05:18:40;;;;;;;39.53;25.60;;;;;;;;;;5044187;28;20413;-63
2022/03/17 05:21:06;;;;;;;45.67;24.63;;;;;;;;;;5053685;28;20422;-64
2022/03/17 05:23:35;;;;;;;38.17;24.60;;;;;;;;;;5047253;28;20422;-64
2022/03/17 05:26:01;;;;;;;41.80;25.80;;;;;;;;;;5050419;28;21193;-63
2022/03/17 05:28:27;;;;;;;40.83;26.13;;;;;;;;;;5053483;28;20409;-63
2022/03/17 05:30:53;;;;;;;36.77;24.80;;;;;;;;;;5053632;28;20512;-65
2022/03/17 05:33:21;;;;;;;40.67;26.50;;;;;;;;;;5053505;28;20897;-63
2022/03/17 05:35:47;;;;;;;42.30;26.77;;;;;;;;;;5053551;28;20414;-66
2022/03/17 05:38:13;;;;;;;37.63;24.33;;;;;;;;;;5053503;28;20951;-66
2022/03/17 05:40:39;;;;;;;36.83;25.13;;;;;;;;;;5053385;28;20440;-66
2022/03/17 05:43:06;;;;;;;40.30;25.77;;;;;;;;;;5053491;28;20401;-67
2022/03/17 05:45:32;;;;;;;41.20;27.40;;;;;;;;;;5053463;28;20433;-66
2022/03/17 05:47:59;;;;;;;42.87;25.70;;;;;;;;;;5053399;28;20460;-66
2022/03/17 05:50:27;;;;;;;38.47;26.60;;;;;;;;;;5053445;28;20442;-66
2022/03/17 05:52:53;;;;;;;41.17;26.10;;;;;;;;;;5053343;28;20410;-67
2022/03/17 05:55:20;;;;;;;42.43;24.73;;;;;;;;;;5053189;28;20476;-66
2022/03/17 05:57:48;;;;;;;43.07;25.67;;;;;;;;;;5053062;28;20433;-67
2022/03/17 06:00:16;;;;;;;43.33;26.50;;;;;;;;;;5053221;28;20474;-67
2022/03/17 06:02:42;;;;;;;42.80;26.57;;;;;;;;;;5051821;28;20459;-66
2022/03/17 06:05:09;;;;;;;41.70;25.70;;;;;;;;;;5053040;28;20504;-66
2022/03/17 06:07:36;;;;;;;44.30;26.23;;;;;;;;;;5053225;28;20786;-66
2022/03/17 06:10:03;;;;;;;43.13;26.90;;;;;;;;;;5053051;28;20500;-69
2022/03/17 06:12:31;;;;;;;42.40;26.30;;;;;;;;;;5053059;28;20409;-68
2022/03/17 06:14:57;;;;;;;39.80;25.57;;;;;;;;;;5052569;28;20554;-68
2022/03/17 06:17:23;;;;;;;42.27;26.63;;;;;;;;;;5052933;28;20456;-68
2022/03/17 06:19:50;;;;;;;37.10;24.40;;;;;;;;;;5053047;28;20888;-68
2022/03/17 06:22:16;;;;;;;37.33;25.00;;;;;;;;;;5052906;28;20429;-67
2022/03/17 06:24:42;;;;;;;38.93;25.17;;;;;;;;;;5051800;28;20462;-69
2022/03/17 06:27:08;;;;;;;42.10;25.07;;;;;;;;;;5052994;28;20505;-69
2022/03/17 06:29:34;;;;;;;42.67;27.13;;;;;;;;;;5052936;28;20857;-69
2022/03/17 06:32:00;;;;;;;43.43;26.40;;;;;;;;;;5052876;28;20425;-69
2022/03/17 06:34:26;;;;;;;40.60;26.67;;;;;;;;;;5052691;28;20880;-68
2022/03/17 06:36:52;;;;;;;43.23;25.30;;;;;;;;;;5052821;28;20889;-66
2022/03/17 06:39:18;;;;;;;38.33;24.67;;;;;;;;;;5052825;28;20414;-67
2022/03/17 06:41:44;;;;;;;41.30;25.73;;;;;;;;;;5052638;28;20460;-64
2022/03/17 06:44:10;;;;;;;44.20;25.47;;;;;;;;;;5051533;28;20444;-66
2022/03/17 06:46:36;;;;;;;43.30;28.10;;;;;;;;;;5052619;28;20500;-64
2022/03/17 06:49:02;;;;;;;44.73;27.23;;;;;;;;;;5052548;28;20422;-63
2022/03/17 06:51:28;;;;;;;45.43;26.10;;;;;;;;;;5052700;28;20435;-64
2022/03/17 06:53:54;;;;;;;41.97;26.27;;;;;;;;;;5052511;28;20480;-66
2022/03/17 06:56:20;;;;;;;42.63;26.63;;;;;;;;;;5052679;28;20413;-66
2022/03/17 06:58:46;;;;;;;41.67;26.13;;;;;;;;;;5052593;28;20445;-65
2022/03/17 07:01:12;;;;;;;47.33;26.40;;;;;;;;;;5052617;28;20729;-64
2022/03/17 07:03:38;;;;;;;44.00;25.80;;;;;;;;;;5051353;28;20747;-65
2022/03/17 07:06:04;;;;;;;40.83;26.00;;;;;;;;;;5052299;28;20457;-64
2022/03/17 07:08:30;;;;;;;41.80;26.90;;;;;;;;;;5052311;28;20927;-64
2022/03/17 07:10:56;;;;;;;44.93;26.43;;;;;;;;;;5052454;28;20493;-66
2022/03/17 07:13:22;;;;;;;42.93;27.30;;;;;;;;;;5052371;28;20499;-65
2022/03/17 07:15:48;;;;;;;40.63;25.63;;;;;;;;;;5052394;28;20437;-67
2022/03/17 07:18:14;;;;;;;45.10;28.60;;;;;;;;;;5052334;28;20402;-68
2022/03/17 07:20:40;;;;;;;45.80;29.20;;;;;;;;;;5052479;28;20409;-68
2022/03/17 07:23:06;;;;;;;45.23;28.03;;;;;;;;;;5052235;28;20471;-67
2022/03/17 07:25:32;;;;;;;42.50;26.67;;;;;;;;;;5051864;28;20418;-66
2022/03/17 07:27:58;;;;;;;42.77;27.47;;;;;;;;;;5055926;28;20432;-66
2022/03/17 07:30:26;;;;;;;45.47;28.40;;;;;;;;;;5055853;28;20420;-67
2022/03/17 07:32:54;;;;;;;47.37;28.83;;;;;;;;;;5055863;28;20420;-67
2022/03/17 07:35:22;;;;;;;43.73;27.27;;;;;;;;;;5055824;28;20460;-67
2022/03/17 07:37:49;;;;;;;46.90;28.33;;;;;;;;;;5055850;28;20398;-67
2022/03/17 07:40:16;;;;;;;39.50;26.50;;;;;;;;;;5055857;28;20409;-69
2022/03/17 07:42:42;;;;;;;46.10;26.23;;;;;;;;;;5055641;28;20447;-68
2022/03/17 07:45:08;;;;;;;47.77;27.90;;;;;;;;;;5055549;28;20916;-68
2022/03/17 07:47:34;;;;;;;50.63;28.83;;;;;;;;;;5055445;28;20406;-66
2022/03/17 07:50:04;;;;;;;46.43;28.90;;;;;;;;;;5055681;28;20488;-66
2022/03/17 07:52:31;;;;;;;46.67;28.80;;;;;;;;;;5055600;28;20402;-66
2022/03/17 07:54:57;;;;;;;43.40;27.90;;;;;;;;;;5055478;28;20492;-65
2022/03/17 07:57:23;;;;;;;44.80;29.10;;;;;;;;;;5055446;28;20876;-64
2022/03/17 07:59:49;;;;;;;42.50;27.87;;;;;;;;;;5055400;28;20405;-66
2022/03/17 08:02:16;;;;;;;41.77;27.10;;;;;;;;;;5055296;28;20414;-64
2022/03/17 08:04:47;;;;;;;41.00;27.60;;;;;;;;;;5055251;28;20460;-64
2022/03/17 08:07:13;;;;;;;45.40;27.83;;;;;;;;;;5055280;28;20410;-63
2022/03/17 08:09:40;;;;;;;47.73;28.90;;;;;;;;;;5055303;28;20971;-64
2022/03/17 08:12:06;;;;;;;44.70;27.73;;;;;;;;;;5055188;28;20409;-65
2022/03/17 08:14:32;;;;;;;44.93;26.30;;;;;;;;;;5055090;28;20568;-65
2022/03/17 08:16:58;;;;;;;45.87;28.10;;;;;;;;;;5055177;28;20485;-63
2022/03/17 08:19:24;;;;;;;45.47;27.50;;;;;;;;;;5055067;28;20422;-65
2022/03/17 08:21:50;;;;;;;42.70;26.43;;;;;;;;;;5055010;28;20941;-64
2022/03/17 08:24:16;;;;;;;42.07;27.57;;;;;;;;;;5055044;28;20905;-65
2022/03/17 08:26:42;;;;;;;45.07;27.37;;;;;;;;;;5054936;28;20422;-67
2022/03/17 08:29:08;;;;;;;45.13;28.10;;;;;;;;;;5054979;28;20402;-67
2022/03/17 08:31:34;;;;;;;42.10;26.33;;;;;;;;;;5053669;28;20901;-68
2022/03/17 08:34:00;;;;;;;41.93;26.50;;;;;;;;;;5054903;28;20504;-68
2022/03/17 08:36:26;;;;;;;42.33;26.83;;;;;;;;;;5054431;28;20422;-70
2022/03/17 08:38:53;;;;;;;44.47;28.17;;;;;;;;;;5054776;28;20405;-71
2022/03/17 08:41:19;;;;;;;46.17;27.77;;;;;;;;;;5054801;28;20459;-69
2022/03/17 08:43:45;;;;;;;44.50;27.40;;;;;;;;;;5054592;28;20405;-70
2022/03/17 08:51:40;;;;;;;43.63;26.43;;;;;;;;;;5054508;28;20417;-70
2022/03/17 08:54:06;;;;;;;42.00;26.63;;;;;;;;;;5053059;28;20572;-66
2022/03/17 08:56:36;;;;;;;44.57;28.40;;;;;;;;;;5053072;28;20493;-65
2022/03/17 08:59:03;;;;;;;43.83;28.90;;;;;;;;;;5054386;28;20844;-64
2022/03/17 09:01:29;;;;;;;48.13;28.10;;;;;;;;;;5054255;28;20958;-66
2022/03/17 09:03:55;;;;;;;46.47;29.73;;;;;;;;;;5054279;28;20509;-67
2022/03/17 09:06:22;;;;;;;44.53;27.57;;;;;;;;;;5053963;28;20528;-69
2022/03/17 09:08:48;;;;;;;42.77;27.80;;;;;;;;;;5054166;28;20418;-69
2022/03/17 09:11:14;;;;;;;44.07;27.10;;;;;;;;;;5054093;28;20441;-69
2022/03/17 09:13:41;;;;;;;43.60;28.10;;;;;;;;;;5053948;28;20449;-69
2022/03/17 09:16:07;;;;;;;39.60;27.13;;;;;;;;;;5053945;28;20790;-70
2022/03/17 09:18:33;;;;;;;38.93;26.43;;;;;;;;;;5053961;28;20471;-69
2022/03/17 09:21:00;;;;;;;51.73;27.43;;;;;;;;;;5053777;28;20552;-70
2022/03/17 09:23:26;;;;;;;42.77;26.40;;;;;;;;;;5053776;28;20405;-70
2022/03/17 09:25:53;;;;;;;41.30;26.40;;;;;;;;;;5053890;28;20432;-68
2022/03/17 09:28:19;;;;;;;39.60;25.70;;;;;;;;;;5053662;28;20402;-69
2022/03/17 09:30:45;;;;;;;39.80;25.73;;;;;;;;;;5053762;28;20414;-70
2022/03/17 09:33:11;;;;;;;39.67;27.07;;;;;;;;;;5053757;28;20410;-69
2022/03/17 09:35:37;;;;;;;45.50;26.90;;;;;;;;;;5053598;28;20829;-68
2022/03/17 09:38:04;;;;;;;38.23;26.03;;;;;;;;;;5053568;28;20417;-68
2022/03/17 09:40:31;;;;;;;43.03;26.63;;;;;;;;;;5053558;28;20496;-70
2022/03/17 09:45:42;;;;;;;37.90;25.70;;;;;;;;;;5053365;28;20552;-70
2022/03/17 09:48:09;;;;;;;45.73;25.60;;;;;;;;;;5052672;28;20398;-70
2022/03/17 09:50:35;;;;;;;38.17;24.40;;;;;;;;;;5053395;28;20409;-68
2022/03/17 09:53:01;;;;;;;38.33;25.97;;;;;;;;;;5053395;28;20406;-68
2022/03/17 09:55:27;;;;;;;40.20;26.50;;;;;;;;;;5053241;28;20461;-68
2022/03/17 09:57:53;;;;;;;39.67;25.20;;;;;;;;;;5053150;28;20817;-71
2022/03/17 10:00:19;;;;;;;40.70;24.87;;;;;;;;;;5053331;28;20425;-71
2022/03/17 10:02:45;;;;;;;38.10;26.10;;;;;;;;;;5053142;28;20881;-69
2022/03/17 10:05:12;;;;;;;37.37;24.10;;;;;;;;;;5052972;28;20495;-69
2022/03/17 10:07:39;;;;;;;40.30;25.27;;;;;;;;;;5053149;28;20420;-70
2022/03/17 10:10:06;;;;;;;39.60;25.20;;;;;;;;;;5051920;28;20402;-70
2022/03/17 10:12:32;;;;;;;39.27;26.00;;;;;;;;;;5051925;28;20421;-70
2022/03/17 10:14:58;;;;;;;38.47;24.37;;;;;;;;;;5051760;28;20564;-68
2022/03/17 10:17:29;;;;;;;36.73;23.00;;;;;;;;;;5053009;28;20809;-67
2022/03/17 10:20:13;;;;;;;38.67;26.07;;;;;;;;;;5053161;28;20432;-70
2022/03/17 10:22:42;;;;;;;35.23;24.20;;;;;;;;;;5052870;28;20467;-70
2022/03/17 10:25:08;;;;;;;39.47;25.63;;;;;;;;;;5052970;28;20440;-66
2022/03/17 10:27:42;;;;;;;36.77;25.43;;;;;;;;;;5051824;28;20492;-69
2022/03/17 10:30:08;;;;;;;40.03;27.30;;;;;;;;;;5052943;28;20417;-68
2022/03/17 10:32:36;;;;;;;43.13;26.40;;;;;;;;;;5053046;28;20402;-68
2022/03/17 10:35:02;;;;;;;37.27;24.67;;;;;;;;;;5052900;28;20472;-70
2022/03/17 10:37:30;;;;;;;41.60;25.20;;;;;;;;;;5052870;28;20390;-72
2022/03/17 10:39:59;;;;;;;38.53;24.73;;;;;;;;;;5051566;28;21050;-70
2022/03/17 10:42:29;;;;;;;39.10;25.40;;;;;;;;;;5052932;28;20410;-70
2022/03/17 10:44:56;;;;;;;45.77;25.90;;;;;;;;;;5052702;28;20418;-70
2022/03/17 10:47:29;;;;;;;41.70;25.90;;;;;;;;;;5052824;28;20489;-69
2022/03/17 10:50:16;;;;;;;38.47;23.20;;;;;;;;;;5052874;28;20745;-67
2022/03/17 10:52:48;;;;;;;41.03;23.50;;;;;;;;;;5052748;28;20409;-70
2022/03/17 10:55:14;;;;;;;34.07;21.40;;;;;;;;;;5052731;28;20959;-70
2022/03/17 10:57:41;;;;;;;35.03;22.53;;;;;;;;;;5052587;28;20416;-69
2022/03/17 11:00:12;;;;;;;37.63;23.30;;;;;;;;;;5054697;28;20393;-69
2022/03/17 11:02:40;;;;;;;35.97;22.57;;;;;;;;;;5056602;28;20417;-68
2022/03/17 11:05:10;;;;;;;40.80;23.73;;;;;;;;;;5056320;28;20445;-69
2022/03/17 11:07:38;;;;;;;31.20;21.83;;;;;;;;;;5056503;28;20430;-69
2022/03/17 11:10:05;;;;;;;36.37;21.60;;;;;;;;;;5056274;28;20408;-67
2022/03/17 11:12:32;;;;;;;35.90;21.70;;;;;;;;;;5056378;28;20459;-69
2022/03/17 11:15:00;;;;;;;37.53;21.17;;;;;;;;;;5056212;28;20822;-68
2022/03/17 11:17:29;;;;;;;41.10;23.57;;;;;;;;;;5056145;28;20738;-67
2022/03/17 11:19:59;;;;;;;39.23;23.50;;;;;;;;;;5056266;28;20393;-68
2022/03/17 11:22:29;;;;;;;39.53;22.37;;;;;;;;;;5056140;28;20406;-68
2022/03/17 11:25:13;;;;;;;40.83;23.03;;;;;;;;;;5056300;28;20741;-66
2022/03/17 11:27:46;;;;;;;38.90;23.73;;;;;;;;;;5056086;28;20970;-67
2022/03/17 11:30:16;;;;;;;39.57;24.50;;;;;;;;;;5055974;28;20409;-71
2022/03/17 11:32:58;;;;;;;43.10;25.50;;;;;;;;;;5056012;28;20404;-70
2022/03/17 11:35:29;;;;;;;39.73;24.23;;;;;;;;;;5055902;28;20464;-71
2022/03/17 11:38:18;;;;;;;42.90;24.43;;;;;;;;;;5056080;28;20406;-67
2022/03/17 11:41:16;;;;;;;42.07;23.90;;;;;;;;;;5051471;28;20521;-68
2022/03/17 11:43:42;;;;;;;42.30;25.33;;;;;;;;;;5054178;28;20897;-67
2022/03/17 11:46:25;;;;;;;38.13;24.03;;;;;;;;;;5055803;28;20426;-68
2022/03/17 11:48:54;;;;;;;39.10;22.97;;;;;;;;;;5055679;28;20417;-68
2022/03/17 11:51:21;;;;;;;42.60;25.90;;;;;;;;;;5055686;28;20413;-64
2022/03/17 11:53:47;;;;;;;39.93;22.73;;;;;;;;;;5055624;28;20824;-65
2022/03/17 11:56:32;;;;;;;42.93;25.17;;;;;;;;;;5055582;28;20433;-70
2022/03/17 11:58:58;;;;;;;47.00;26.60;;;;;;;;;;5055541;28;20393;-68
2022/03/17 12:01:35;;;;;;;45.73;27.33;;;;;;;;;;5055445;28;20919;-68
2022/03/17 12:04:02;;;;;;;49.63;28.63;;;;;;;;;;5055374;28;20419;-65
2022/03/17 12:06:29;;;;;;;48.30;26.80;;;;;;;;;;5055152;28;20457;-64
2022/03/17 12:09:02;;;;;;;47.53;27.27;;;;;;;;;;5055317;28;20944;-68
2022/03/17 12:11:32;;;;;;;48.70;27.97;;;;;;;;;;5054425;28;20916;-65
2022/03/17 12:14:25;;;;;;;47.90;27.67;;;;;;;;;;5055042;28;20469;-64
2022/03/17 12:16:52;;;;;;;48.67;27.47;;;;;;;;;;5053949;28;20422;-65
2022/03/17 12:19:33;;;;;;;50.50;27.80;;;;;;;;;;5055172;28;20405;-67
2022/03/17 12:22:00;;;;;;;49.27;26.83;;;;;;;;;;5054949;28;20548;-65
2022/03/17 12:24:35;;;;;;;48.10;29.20;;;;;;;;;;5055094;28;20489;-65
2022/03/17 12:27:07;;;;;;;50.13;29.70;;;;;;;;;;5055017;28;20884;-65
2022/03/17 12:29:34;;;;;;;46.40;26.67;;;;;;;;;;5055019;28;20410;-68
2022/03/17 12:32:10;;;;;;;59.87;29.90;;;;;;;;;;5054998;28;20397;-63
2022/03/17 12:34:37;;;;;;;50.27;28.77;;;;;;;;;;5053422;28;20850;-66
2022/03/17 12:37:04;;;;;;;48.03;27.60;;;;;;;;;;5054710;28;20412;-64
2022/03/17 12:39:30;;;;;;;43.93;26.40;;;;;;;;;;5054644;28;20413;-66
2022/03/17 12:41:57;;;;;;;45.63;28.50;;;;;;;;;;5053458;28;20476;-66
2022/03/17 12:44:24;;;;;;;46.10;26.27;;;;;;;;;;5054669;28;20837;-66
2022/03/17 12:46:51;;;;;;;49.93;29.77;;;;;;;;;;5054497;28;20767;-65
2022/03/17 12:49:18;;;;;;;46.90;28.60;;;;;;;;;;5054819;28;20408;-68
2022/03/17 12:51:44;;;;;;;44.40;25.97;;;;;;;;;;5054522;28;20543;-65
2022/03/17 12:54:12;;;;;;;49.93;28.60;;;;;;;;;;5053217;28;21043;-66
2022/03/17 12:56:52;;;;;;;48.47;29.07;;;;;;;;;;5054305;28;20477;-65
2022/03/17 12:59:18;;;;;;;50.50;30.00;;;;;;;;;;5054404;28;20397;-65
2022/03/17 13:01:48;;;;;;;44.37;27.83;;;;;;;;;;5054182;28;20509;-68
2022/03/17 13:04:14;;;;;;;48.70;29.30;;;;;;;;;;5054053;28;20433;-64
2022/03/17 13:06:54;;;;;;;48.63;28.63;;;;;;;;;;5054235;28;20429;-65
2022/03/17 13:09:20;;;;;;;49.50;28.30;;;;;;;;;;5054108;28;20781;-64
2022/03/17 13:14:34;;;;;;;54.30;30.30;;;;;;;;;;5054016;28;20507;-64
2022/03/17 13:17:02;;;;;;;47.57;29.50;;;;;;;;;;5054068;28;20398;-64
2022/03/17 13:19:28;;;;;;;50.93;29.77;;;;;;;;;;5053984;28;20937;-66
2022/03/17 13:22:04;;;;;;;51.03;29.80;;;;;;;;;;5053878;28;20425;-66
2022/03/17 13:24:30;;;;;;;51.50;29.10;;;;;;;;;;5053127;28;20402;-66
2022/03/17 13:27:02;;;;;;;48.43;29.50;;;;;;;;;;5053807;28;20501;-66
2022/03/17 13:29:28;;;;;;;52.33;30.13;;;;;;;;;;5053791;28;20409;-64
2022/03/17 13:31:54;;;;;;;48.23;28.90;;;;;;;;;;5053887;28;20891;-65
2022/03/17 13:34:46;;;;;;;52.43;30.17;;;;;;;;;;5053763;28;20453;-67
2022/03/17 13:37:14;;;;;;;47.50;28.30;;;;;;;;;;5053370;28;20421;-65
2022/03/17 13:39:40;;;;;;;46.90;27.93;;;;;;;;;;5053486;28;20707;-65
2022/03/17 13:42:15;;;;;;;47.80;26.40;;;;;;;;;;5053573;28;20509;-66
2022/03/17 13:44:54;;;;;;;46.10;28.13;;;;;;;;;;5053522;28;20426;-66
2022/03/17 13:47:22;;;;;;;43.37;26.93;;;;;;;;;;5053392;28;20463;-66
2022/03/17 13:50:06;;;;;;;45.70;28.13;;;;;;;;;;5053311;28;20417;-64
2022/03/17 13:52:32;;;;;;;41.50;26.40;;;;;;;;;;5053267;28;20778;-63
2022/03/17 13:54:58;;;;;;;47.83;29.10;;;;;;;;;;5053279;28;20486;-65
2022/03/17 13:57:24;;;;;;;50.30;28.10;;;;;;;;;;5053192;28;20417;-64
2022/03/17 13:59:50;;;;;;;45.70;27.00;;;;;;;;;;5053265;28;20439;-64
2022/03/17 14:02:17;;;;;;;47.53;27.93;;;;;;;;;;5053250;28;20409;-64
2022/03/17 14:04:56;;;;;;;49.60;27.67;;;;;;;;;;5053042;28;20464;-65
2022/03/17 14:07:22;;;;;;;49.67;28.33;;;;;;;;;;5053093;28;20737;-64
2022/03/17 14:09:48;;;;;;;47.73;27.67;;;;;;;;;;5053212;28;20394;-63
2022/03/17 14:12:14;;;;;;;45.53;27.60;;;;;;;;;;5053126;28;20463;-64
2022/03/17 14:14:40;;;;;;;49.87;27.50;;;;;;;;;;5052941;28;20469;-63
2022/03/17 14:17:10;;;;;;;48.37;27.17;;;;;;;;;;5052954;28;20405;-65
2022/03/17 14:19:36;;;;;;;44.33;26.90;;;;;;;;;;5053102;28;20413;-63
2022/03/17 14:24:46;;;;;;;53.37;27.37;;;;;;;;;;5053325;28;20389;-63
2022/03/17 14:27:12;;;;;;;54.33;29.03;;;;;;;;;;5052796;28;20417;-63
2022/03/17 14:29:38;;;;;;;50.07;28.80;;;;;;;;;;5052924;28;20501;-63
2022/03/17 14:32:05;;;;;;;48.07;26.50;;;;;;;;;;5052766;28;20412;-67
2022/03/17 14:34:31;;;;;;;43.20;27.77;;;;;;;;;;5052589;28;20457;-66
2022/03/17 14:36:58;;;;;;;46.67;28.20;;;;;;;;;;5056928;28;20417;-63
2022/03/17 14:39:24;;;;;;;43.37;26.50;;;;;;;;;;5056905;28;20785;-64
2022/03/17 14:41:52;;;;;;;50.27;27.40;;;;;;;;;;5056739;28;20425;-66
2022/03/17 14:44:18;;;;;;;45.53;27.17;;;;;;;;;;5056798;28;20932;-69
2022/03/17 14:46:44;;;;;;;51.33;28.70;;;;;;;;;;5055417;28;20402;-67